sensor_id;sensor_type;location;lat;lon;timestamp;P1;durP1;ratioP1;P2;durP2;ratioP2
63699;SDS011;49845;47.130;142.766;2023-07-29T00:00:29;13.23;;;8.90;;
63699;SDS011;49845;47.130;142.766;2023-07-29T00:03:00;13.43;;;8.83;;
63699;SDS011;49845;47.130;142.766;2023-07-29T00:05:30;17.37;;;8.47;;
63699;SDS011;49845;47.130;142.766;2023-07-29T00:08:01;16.10;;;7.93;;
63699;SDS011;49845;47.130;142.766;2023-07-29T00:10:35;17.30;;;8.37;;
63699;SDS011;49845;47.130;142.766;2023-07-29T00:13:06;14.10;;;7.90;;
63699;SDS011;49845;47.130;142.766;2023-07-29T00:15:37;13.53;;;8.00;;
63699;SDS011;49845;47.130;142.766;2023-07-29T00:18:08;11.97;;;7.67;;
63699;SDS011;49845;47.130;142.766;2023-07-29T00:20:39;14.03;;;7.20;;
63699;SDS011;49845;47.130;142.766;2023-07-29T00:23:10;10.60;;;6.53;;
63699;SDS011;49845;47.130;142.766;2023-07-29T00:25:42;10.67;;;6.70;;
63699;SDS011;49845;47.130;142.766;2023-07-29T00:28:12;15.70;;;6.93;;
63699;SDS011;49845;47.130;142.766;2023-07-29T00:30:44;13.97;;;6.57;;
63699;SDS011;49845;47.130;142.766;2023-07-29T00:33:15;9.97;;;7.23;;
63699;SDS011;49845;47.130;142.766;2023-07-29T00:35:45;12.33;;;6.10;;
63699;SDS011;49845;47.130;142.766;2023-07-29T00:38:16;9.50;;;6.50;;
63699;SDS011;49845;47.130;142.766;2023-07-29T00:40:48;8.53;;;6.43;;
63699;SDS011;49845;47.130;142.766;2023-07-29T00:43:20;11.60;;;6.17;;
63699;SDS011;49845;47.130;142.766;2023-07-29T00:45:51;10.77;;;6.20;;
63699;SDS011;49845;47.130;142.766;2023-07-29T00:48:22;10.50;;;6.10;;
63699;SDS011;49845;47.130;142.766;2023-07-29T00:50:53;10.70;;;6.80;;
63699;SDS011;49845;47.130;142.766;2023-07-29T00:53:24;9.97;;;6.20;;
63699;SDS011;49845;47.130;142.766;2023-07-29T00:55:56;10.57;;;6.10;;
63699;SDS011;49845;47.130;142.766;2023-07-29T00:58:27;7.50;;;5.57;;
63699;SDS011;49845;47.130;142.766;2023-07-29T01:00:58;11.97;;;5.60;;
63699;SDS011;49845;47.130;142.766;2023-07-29T01:03:28;9.90;;;6.43;;
63699;SDS011;49845;47.130;142.766;2023-07-29T01:06:04;10.03;;;6.57;;
63699;SDS011;49845;47.130;142.766;2023-07-29T01:08:45;19.93;;;6.80;;
63699;SDS011;49845;47.130;142.766;2023-07-29T01:11:25;12.95;;;5.88;;
63699;SDS011;49845;47.130;142.766;2023-07-29T01:14:04;10.27;;;6.30;;
63699;SDS011;49845;47.130;142.766;2023-07-29T01:16:55;13.27;;;6.07;;
63699;SDS011;49845;47.130;142.766;2023-07-29T01:19:43;13.43;;;5.93;;
63699;SDS011;49845;47.130;142.766;2023-07-29T01:22:20;11.07;;;5.50;;
63699;SDS011;49845;47.130;142.766;2023-07-29T01:24:55;10.83;;;6.00;;
63699;SDS011;49845;47.130;142.766;2023-07-29T01:27:25;12.60;;;6.00;;
63699;SDS011;49845;47.130;142.766;2023-07-29T01:29:56;9.67;;;5.73;;
63699;SDS011;49845;47.130;142.766;2023-07-29T01:32:29;9.07;;;5.70;;
63699;SDS011;49845;47.130;142.766;2023-07-29T01:35:10;11.87;;;5.27;;
63699;SDS011;49845;47.130;142.766;2023-07-29T01:37:49;11.63;;;5.43;;
63699;SDS011;49845;47.130;142.766;2023-07-29T01:40:26;12.03;;;5.33;;
63699;SDS011;49845;47.130;142.766;2023-07-29T01:42:57;11.63;;;5.40;;
63699;SDS011;49845;47.130;142.766;2023-07-29T01:45:28;13.27;;;4.87;;
63699;SDS011;49845;47.130;142.766;2023-07-29T01:48:04;11.63;;;5.87;;
63699;SDS011;49845;47.130;142.766;2023-07-29T01:50:35;9.77;;;5.40;;
63699;SDS011;49845;47.130;142.766;2023-07-29T01:53:05;8.80;;;5.33;;
63699;SDS011;49845;47.130;142.766;2023-07-29T01:55:38;11.97;;;5.53;;
63699;SDS011;49845;47.130;142.766;2023-07-29T01:58:09;7.60;;;5.23;;
63699;SDS011;49845;47.130;142.766;2023-07-29T02:00:40;7.40;;;4.63;;
63699;SDS011;49845;47.130;142.766;2023-07-29T02:03:10;9.63;;;5.00;;
63699;SDS011;49845;47.130;142.766;2023-07-29T02:05:41;10.10;;;5.20;;
63699;SDS011;49845;47.130;142.766;2023-07-29T02:08:11;7.63;;;4.70;;
63699;SDS011;49845;47.130;142.766;2023-07-29T02:10:44;6.97;;;4.87;;
63699;SDS011;49845;47.130;142.766;2023-07-29T02:13:16;6.63;;;4.70;;
63699;SDS011;49845;47.130;142.766;2023-07-29T02:15:46;7.10;;;5.10;;
63699;SDS011;49845;47.130;142.766;2023-07-29T02:18:17;14.53;;;4.83;;
63699;SDS011;49845;47.130;142.766;2023-07-29T02:20:48;8.43;;;4.50;;
63699;SDS011;49845;47.130;142.766;2023-07-29T02:23:18;9.90;;;5.10;;
63699;SDS011;49845;47.130;142.766;2023-07-29T02:25:51;9.00;;;4.83;;
63699;SDS011;49845;47.130;142.766;2023-07-29T02:28:21;7.93;;;4.93;;
63699;SDS011;49845;47.130;142.766;2023-07-29T02:33:44;8.53;;;4.80;;
63699;SDS011;49845;47.130;142.766;2023-07-29T02:36:14;9.53;;;5.00;;
63699;SDS011;49845;47.130;142.766;2023-07-29T02:38:45;11.00;;;4.90;;
63699;SDS011;49845;47.130;142.766;2023-07-29T02:41:17;8.03;;;4.90;;
63699;SDS011;49845;47.130;142.766;2023-07-29T02:43:48;10.97;;;4.33;;
63699;SDS011;49845;47.130;142.766;2023-07-29T02:46:19;8.70;;;3.77;;
63699;SDS011;49845;47.130;142.766;2023-07-29T02:48:50;6.77;;;4.30;;
63699;SDS011;49845;47.130;142.766;2023-07-29T02:51:20;11.13;;;4.40;;
63699;SDS011;49845;47.130;142.766;2023-07-29T02:53:52;6.47;;;3.60;;
63699;SDS011;49845;47.130;142.766;2023-07-29T02:56:24;6.97;;;3.80;;
63699;SDS011;49845;47.130;142.766;2023-07-29T02:58:54;12.13;;;4.07;;
63699;SDS011;49845;47.130;142.766;2023-07-29T03:01:27;6.87;;;4.07;;
63699;SDS011;49845;47.130;142.766;2023-07-29T03:04:02;7.77;;;3.93;;
63699;SDS011;49845;47.130;142.766;2023-07-29T03:06:32;5.50;;;4.20;;
63699;SDS011;49845;47.130;142.766;2023-07-29T03:09:03;14.97;;;4.40;;
63699;SDS011;49845;47.130;142.766;2023-07-29T03:11:35;9.77;;;4.10;;
63699;SDS011;49845;47.130;142.766;2023-07-29T03:14:06;7.67;;;3.90;;
63699;SDS011;49845;47.130;142.766;2023-07-29T03:16:36;13.67;;;4.00;;
63699;SDS011;49845;47.130;142.766;2023-07-29T03:19:07;9.20;;;3.70;;
63699;SDS011;49845;47.130;142.766;2023-07-29T03:21:38;8.80;;;3.63;;
63699;SDS011;49845;47.130;142.766;2023-07-29T03:24:08;6.63;;;3.67;;
63699;SDS011;49845;47.130;142.766;2023-07-29T03:26:41;5.00;;;3.47;;
63699;SDS011;49845;47.130;142.766;2023-07-29T03:29:12;12.17;;;4.07;;
63699;SDS011;49845;47.130;142.766;2023-07-29T03:31:43;8.37;;;4.17;;
63699;SDS011;49845;47.130;142.766;2023-07-29T03:34:13;7.60;;;3.87;;
63699;SDS011;49845;47.130;142.766;2023-07-29T03:36:44;8.07;;;4.13;;
63699;SDS011;49845;47.130;142.766;2023-07-29T03:39:15;7.87;;;4.13;;
63699;SDS011;49845;47.130;142.766;2023-07-29T03:41:47;7.60;;;4.20;;
63699;SDS011;49845;47.130;142.766;2023-07-29T03:44:18;7.47;;;3.93;;
63699;SDS011;49845;47.130;142.766;2023-07-29T03:46:49;7.70;;;3.73;;
63699;SDS011;49845;47.130;142.766;2023-07-29T03:49:19;7.10;;;4.20;;
63699;SDS011;49845;47.130;142.766;2023-07-29T03:51:50;11.47;;;4.00;;
63699;SDS011;49845;47.130;142.766;2023-07-29T03:54:21;8.80;;;4.50;;
63699;SDS011;49845;47.130;142.766;2023-07-29T03:56:53;8.40;;;3.90;;
63699;SDS011;49845;47.130;142.766;2023-07-29T03:59:23;8.97;;;4.37;;
63699;SDS011;49845;47.130;142.766;2023-07-29T04:01:54;7.33;;;4.10;;
63699;SDS011;49845;47.130;142.766;2023-07-29T04:04:24;12.73;;;4.40;;
63699;SDS011;49845;47.130;142.766;2023-07-29T04:06:55;8.47;;;3.97;;
63699;SDS011;49845;47.130;142.766;2023-07-29T04:09:25;7.80;;;4.10;;
63699;SDS011;49845;47.130;142.766;2023-07-29T04:11:57;7.20;;;4.27;;
63699;SDS011;49845;47.130;142.766;2023-07-29T04:14:28;7.60;;;4.30;;
63699;SDS011;49845;47.130;142.766;2023-07-29T04:17:00;7.40;;;4.43;;
63699;SDS011;49845;47.130;142.766;2023-07-29T04:19:31;8.43;;;4.70;;
63699;SDS011;49845;47.130;142.766;2023-07-29T04:22:02;6.87;;;4.67;;
63699;SDS011;49845;47.130;142.766;2023-07-29T04:24:33;10.40;;;4.90;;
63699;SDS011;49845;47.130;142.766;2023-07-29T04:27:07;5.00;;;4.50;;
63699;SDS011;49845;47.130;142.766;2023-07-29T04:29:37;15.33;;;5.17;;
63699;SDS011;49845;47.130;142.766;2023-07-29T04:32:08;32.13;;;11.37;;
63699;SDS011;49845;47.130;142.766;2023-07-29T04:34:39;30.07;;;11.67;;
63699;SDS011;49845;47.130;142.766;2023-07-29T04:37:09;28.60;;;11.87;;
63699;SDS011;49845;47.130;142.766;2023-07-29T04:39:40;21.57;;;10.60;;
63699;SDS011;49845;47.130;142.766;2023-07-29T04:42:12;27.63;;;12.43;;
63699;SDS011;49845;47.130;142.766;2023-07-29T04:44:42;31.37;;;12.67;;
63699;SDS011;49845;47.130;142.766;2023-07-29T04:47:13;31.00;;;13.40;;
63699;SDS011;49845;47.130;142.766;2023-07-29T04:49:44;29.43;;;12.93;;
63699;SDS011;49845;47.130;142.766;2023-07-29T04:52:14;30.50;;;12.27;;
63699;SDS011;49845;47.130;142.766;2023-07-29T04:54:47;26.67;;;11.73;;
63699;SDS011;49845;47.130;142.766;2023-07-29T04:57:20;27.77;;;12.37;;
63699;SDS011;49845;47.130;142.766;2023-07-29T04:59:50;28.77;;;12.07;;
63699;SDS011;49845;47.130;142.766;2023-07-29T05:02:21;26.90;;;12.50;;
63699;SDS011;49845;47.130;142.766;2023-07-29T05:04:52;29.77;;;12.20;;
63699;SDS011;49845;47.130;142.766;2023-07-29T05:07:22;26.57;;;12.10;;
63699;SDS011;49845;47.130;142.766;2023-07-29T05:09:53;29.50;;;13.17;;
63699;SDS011;49845;47.130;142.766;2023-07-29T05:12:25;29.70;;;11.97;;
63699;SDS011;49845;47.130;142.766;2023-07-29T05:14:57;31.47;;;12.13;;
63699;SDS011;49845;47.130;142.766;2023-07-29T05:17:27;32.67;;;12.60;;
63699;SDS011;49845;47.130;142.766;2023-07-29T05:19:58;30.17;;;12.67;;
63699;SDS011;49845;47.130;142.766;2023-07-29T05:22:28;27.23;;;12.37;;
63699;SDS011;49845;47.130;142.766;2023-07-29T05:24:59;29.57;;;12.73;;
63699;SDS011;49845;47.130;142.766;2023-07-29T05:27:31;33.93;;;12.67;;
63699;SDS011;49845;47.130;142.766;2023-07-29T05:30:02;28.10;;;12.73;;
63699;SDS011;49845;47.130;142.766;2023-07-29T05:32:34;29.47;;;11.70;;
63699;SDS011;49845;47.130;142.766;2023-07-29T05:35:05;29.90;;;12.13;;
63699;SDS011;49845;47.130;142.766;2023-07-29T05:37:38;33.83;;;13.50;;
63699;SDS011;49845;47.130;142.766;2023-07-29T05:40:09;33.47;;;12.73;;
63699;SDS011;49845;47.130;142.766;2023-07-29T05:42:41;24.60;;;11.77;;
63699;SDS011;49845;47.130;142.766;2023-07-29T05:45:12;31.20;;;11.70;;
63699;SDS011;49845;47.130;142.766;2023-07-29T05:47:44;26.60;;;11.73;;
63699;SDS011;49845;47.130;142.766;2023-07-29T05:50:15;25.70;;;12.90;;
63699;SDS011;49845;47.130;142.766;2023-07-29T05:52:46;34.30;;;12.67;;
63699;SDS011;49845;47.130;142.766;2023-07-29T05:55:16;28.30;;;11.57;;
63699;SDS011;49845;47.130;142.766;2023-07-29T05:57:48;30.07;;;12.13;;
63699;SDS011;49845;47.130;142.766;2023-07-29T06:00:19;28.43;;;11.40;;
63699;SDS011;49845;47.130;142.766;2023-07-29T06:02:49;29.40;;;12.77;;
63699;SDS011;49845;47.130;142.766;2023-07-29T06:05:20;28.80;;;11.90;;
63699;SDS011;49845;47.130;142.766;2023-07-29T06:07:51;23.70;;;10.90;;
63699;SDS011;49845;47.130;142.766;2023-07-29T06:10:21;30.57;;;11.40;;
63699;SDS011;49845;47.130;142.766;2023-07-29T06:12:54;30.03;;;11.53;;
63699;SDS011;49845;47.130;142.766;2023-07-29T06:15:24;22.43;;;10.83;;
63699;SDS011;49845;47.130;142.766;2023-07-29T06:17:55;27.47;;;11.27;;
63699;SDS011;49845;47.130;142.766;2023-07-29T06:20:26;27.30;;;10.67;;
63699;SDS011;49845;47.130;142.766;2023-07-29T06:22:57;32.07;;;12.07;;
63699;SDS011;49845;47.130;142.766;2023-07-29T06:25:27;29.40;;;11.27;;
63699;SDS011;49845;47.130;142.766;2023-07-29T06:27:59;24.70;;;11.53;;
63699;SDS011;49845;47.130;142.766;2023-07-29T06:30:30;28.20;;;11.43;;
63699;SDS011;49845;47.130;142.766;2023-07-29T06:33:01;33.97;;;12.20;;
63699;SDS011;49845;47.130;142.766;2023-07-29T06:35:32;23.37;;;12.00;;
63699;SDS011;49845;47.130;142.766;2023-07-29T06:38:02;27.03;;;11.83;;
63699;SDS011;49845;47.130;142.766;2023-07-29T06:40:33;24.97;;;11.43;;
63699;SDS011;49845;47.130;142.766;2023-07-29T06:43:05;24.97;;;11.80;;
63699;SDS011;49845;47.130;142.766;2023-07-29T06:45:35;31.40;;;12.13;;
63699;SDS011;49845;47.130;142.766;2023-07-29T06:48:06;22.70;;;10.73;;
63699;SDS011;49845;47.130;142.766;2023-07-29T06:50:36;25.80;;;11.93;;
63699;SDS011;49845;47.130;142.766;2023-07-29T06:53:07;22.97;;;11.17;;
63699;SDS011;49845;47.130;142.766;2023-07-29T06:55:38;25.90;;;12.10;;
63699;SDS011;49845;47.130;142.766;2023-07-29T06:58:14;26.90;;;12.30;;
63699;SDS011;49845;47.130;142.766;2023-07-29T07:00:45;29.80;;;12.10;;
63699;SDS011;49845;47.130;142.766;2023-07-29T07:03:16;24.57;;;11.67;;
63699;SDS011;49845;47.130;142.766;2023-07-29T07:05:46;25.03;;;11.40;;
63699;SDS011;49845;47.130;142.766;2023-07-29T07:08:17;22.50;;;12.03;;
63699;SDS011;49845;47.130;142.766;2023-07-29T07:10:48;29.03;;;12.07;;
63699;SDS011;49845;47.130;142.766;2023-07-29T07:13:20;25.10;;;11.67;;
63699;SDS011;49845;47.130;142.766;2023-07-29T07:15:50;30.13;;;12.47;;
63699;SDS011;49845;47.130;142.766;2023-07-29T07:18:23;29.03;;;11.77;;
63699;SDS011;49845;47.130;142.766;2023-07-29T07:20:54;23.33;;;11.37;;
63699;SDS011;49845;47.130;142.766;2023-07-29T07:23:25;31.90;;;13.43;;
63699;SDS011;49845;47.130;142.766;2023-07-29T07:25:55;32.60;;;12.20;;
63699;SDS011;49845;47.130;142.766;2023-07-29T07:28:27;27.97;;;11.53;;
63699;SDS011;49845;47.130;142.766;2023-07-29T07:30:58;22.53;;;11.87;;
63699;SDS011;49845;47.130;142.766;2023-07-29T07:33:29;35.00;;;15.20;;
63699;SDS011;49845;47.130;142.766;2023-07-29T07:35:59;25.70;;;13.40;;
63699;SDS011;49845;47.130;142.766;2023-07-29T07:38:30;29.43;;;13.93;;
63699;SDS011;49845;47.130;142.766;2023-07-29T07:41:01;29.10;;;12.47;;
63699;SDS011;49845;47.130;142.766;2023-07-29T07:43:33;36.67;;;12.47;;
63699;SDS011;49845;47.130;142.766;2023-07-29T07:46:03;35.47;;;13.07;;
63699;SDS011;49845;47.130;142.766;2023-07-29T07:48:34;33.17;;;11.60;;
63699;SDS011;49845;47.130;142.766;2023-07-29T07:51:14;27.53;;;11.70;;
63699;SDS011;49845;47.130;142.766;2023-07-29T07:53:44;25.83;;;10.07;;
63699;SDS011;49845;47.130;142.766;2023-07-29T07:56:15;29.23;;;11.30;;
63699;SDS011;49845;47.130;142.766;2023-07-29T07:58:47;25.17;;;11.13;;
63699;SDS011;49845;47.130;142.766;2023-07-29T08:01:17;27.37;;;11.33;;
63699;SDS011;49845;47.130;142.766;2023-07-29T08:03:48;25.63;;;10.97;;
63699;SDS011;49845;47.130;142.766;2023-07-29T08:06:18;31.07;;;12.07;;
63699;SDS011;49845;47.130;142.766;2023-07-29T08:08:49;24.40;;;11.60;;
63699;SDS011;49845;47.130;142.766;2023-07-29T08:11:19;22.03;;;10.00;;
63699;SDS011;49845;47.130;142.766;2023-07-29T08:13:52;31.40;;;12.20;;
63699;SDS011;49845;47.130;142.766;2023-07-29T08:16:22;26.70;;;10.73;;
63699;SDS011;49845;47.130;142.766;2023-07-29T08:18:53;24.83;;;10.50;;
63699;SDS011;49845;47.130;142.766;2023-07-29T08:21:23;24.67;;;10.43;;
63699;SDS011;49845;47.130;142.766;2023-07-29T08:23:54;29.70;;;11.20;;
63699;SDS011;49845;47.130;142.766;2023-07-29T08:26:24;32.93;;;12.17;;
63699;SDS011;49845;47.130;142.766;2023-07-29T08:28:56;29.93;;;11.90;;
63699;SDS011;49845;47.130;142.766;2023-07-29T08:31:26;29.90;;;11.23;;
63699;SDS011;49845;47.130;142.766;2023-07-29T08:33:58;25.13;;;10.97;;
63699;SDS011;49845;47.130;142.766;2023-07-29T08:36:35;24.30;;;10.67;;
63699;SDS011;49845;47.130;142.766;2023-07-29T08:39:30;24.67;;;11.10;;
63699;SDS011;49845;47.130;142.766;2023-07-29T08:42:02;27.03;;;12.10;;
63699;SDS011;49845;47.130;142.766;2023-07-29T08:44:41;27.87;;;12.23;;
63699;SDS011;49845;47.130;142.766;2023-07-29T08:47:12;24.57;;;11.90;;
63699;SDS011;49845;47.130;142.766;2023-07-29T08:49:43;27.80;;;11.13;;
63699;SDS011;49845;47.130;142.766;2023-07-29T08:52:15;27.90;;;11.30;;
63699;SDS011;49845;47.130;142.766;2023-07-29T08:54:46;22.13;;;10.80;;
63699;SDS011;49845;47.130;142.766;2023-07-29T08:57:16;25.77;;;11.57;;
63699;SDS011;49845;47.130;142.766;2023-07-29T08:59:49;29.07;;;11.83;;
63699;SDS011;49845;47.130;142.766;2023-07-29T09:02:20;28.67;;;11.50;;
63699;SDS011;49845;47.130;142.766;2023-07-29T09:04:56;29.03;;;11.47;;
63699;SDS011;49845;47.130;142.766;2023-07-29T09:07:32;29.93;;;12.33;;
63699;SDS011;49845;47.130;142.766;2023-07-29T09:10:07;29.20;;;11.37;;
63699;SDS011;49845;47.130;142.766;2023-07-29T09:12:39;28.23;;;10.73;;
63699;SDS011;49845;47.130;142.766;2023-07-29T09:15:13;23.33;;;11.03;;
63699;SDS011;49845;47.130;142.766;2023-07-29T09:17:56;23.27;;;10.10;;
63699;SDS011;49845;47.130;142.766;2023-07-29T09:20:36;27.33;;;11.10;;
63699;SDS011;49845;47.130;142.766;2023-07-29T09:23:23;47.40;;;13.50;;
63699;SDS011;49845;47.130;142.766;2023-07-29T09:26:03;39.57;;;13.50;;
63699;SDS011;49845;47.130;142.766;2023-07-29T09:28:37;39.70;;;14.17;;
63699;SDS011;49845;47.130;142.766;2023-07-29T09:31:22;40.83;;;14.10;;
63699;SDS011;49845;47.130;142.766;2023-07-29T09:34:00;31.93;;;12.60;;
63699;SDS011;49845;47.130;142.766;2023-07-29T09:36:34;44.03;;;13.50;;
63699;SDS011;49845;47.130;142.766;2023-07-29T09:39:10;40.43;;;13.47;;
63699;SDS011;49845;47.130;142.766;2023-07-29T09:41:56;30.30;;;13.33;;
63699;SDS011;49845;47.130;142.766;2023-07-29T09:45:55;38.87;;;13.50;;
63699;SDS011;49845;47.130;142.766;2023-07-29T09:48:19;39.55;;;14.60;;
63699;SDS011;49845;47.130;142.766;2023-07-29T09:50:57;42.37;;;13.90;;
63699;SDS011;49845;47.130;142.766;2023-07-29T09:53:53;43.63;;;14.70;;
63699;SDS011;49845;47.130;142.766;2023-07-29T09:56:27;39.63;;;14.07;;
63699;SDS011;49845;47.130;142.766;2023-07-29T09:59:06;42.83;;;15.10;;
63699;SDS011;49845;47.130;142.766;2023-07-29T10:01:55;42.20;;;12.80;;
63699;SDS011;49845;47.130;142.766;2023-07-29T10:04:28;42.90;;;12.37;;
63699;SDS011;49845;47.130;142.766;2023-07-29T10:07:01;40.83;;;12.37;;
63699;SDS011;49845;47.130;142.766;2023-07-29T10:09:36;32.43;;;12.80;;
63699;SDS011;49845;47.130;142.766;2023-07-29T10:12:08;26.73;;;12.03;;
63699;SDS011;49845;47.130;142.766;2023-07-29T10:14:50;24.13;;;12.10;;
63699;SDS011;49845;47.130;142.766;2023-07-29T10:17:23;25.63;;;12.40;;
63699;SDS011;49845;47.130;142.766;2023-07-29T10:20:00;29.93;;;12.10;;
63699;SDS011;49845;47.130;142.766;2023-07-29T10:22:33;25.33;;;12.40;;
63699;SDS011;49845;47.130;142.766;2023-07-29T10:25:15;24.70;;;12.20;;
63699;SDS011;49845;47.130;142.766;2023-07-29T10:27:52;25.10;;;12.60;;
63699;SDS011;49845;47.130;142.766;2023-07-29T10:30:26;23.33;;;11.30;;
63699;SDS011;49845;47.130;142.766;2023-07-29T10:32:59;29.17;;;13.53;;
63699;SDS011;49845;47.130;142.766;2023-07-29T10:35:34;26.97;;;13.30;;
63699;SDS011;49845;47.130;142.766;2023-07-29T10:38:06;26.77;;;14.13;;
63699;SDS011;49845;47.130;142.766;2023-07-29T10:40:45;35.13;;;16.83;;
63699;SDS011;49845;47.130;142.766;2023-07-29T10:43:26;31.13;;;14.53;;
63699;SDS011;49845;47.130;142.766;2023-07-29T10:46:14;27.85;;;11.95;;
63699;SDS011;49845;47.130;142.766;2023-07-29T10:48:56;28.83;;;11.00;;
63699;SDS011;49845;47.130;142.766;2023-07-29T10:51:30;20.87;;;10.47;;
63699;SDS011;49845;47.130;142.766;2023-07-29T10:54:09;17.13;;;9.70;;
63699;SDS011;49845;47.130;142.766;2023-07-29T10:56:42;23.27;;;10.03;;
63699;SDS011;49845;47.130;142.766;2023-07-29T10:59:34;28.20;;;10.60;;
63699;SDS011;49845;47.130;142.766;2023-07-29T11:02:17;26.37;;;10.70;;
63699;SDS011;49845;47.130;142.766;2023-07-29T11:04:50;21.90;;;10.67;;
63699;SDS011;49845;47.130;142.766;2023-07-29T11:07:26;25.67;;;10.97;;
63699;SDS011;49845;47.130;142.766;2023-07-29T11:10:02;19.47;;;10.30;;
63699;SDS011;49845;47.130;142.766;2023-07-29T11:12:36;20.77;;;10.83;;
63699;SDS011;49845;47.130;142.766;2023-07-29T11:15:16;23.77;;;10.87;;
63699;SDS011;49845;47.130;142.766;2023-07-29T11:17:53;22.00;;;10.03;;
63699;SDS011;49845;47.130;142.766;2023-07-29T11:20:28;18.20;;;10.30;;
63699;SDS011;49845;47.130;142.766;2023-07-29T11:23:11;19.03;;;10.07;;
63699;SDS011;49845;47.130;142.766;2023-07-29T11:25:42;19.07;;;10.50;;
63699;SDS011;49845;47.130;142.766;2023-07-29T11:28:13;16.93;;;10.77;;
63699;SDS011;49845;47.130;142.766;2023-07-29T11:30:46;21.20;;;10.33;;
63699;SDS011;49845;47.130;142.766;2023-07-29T11:33:23;26.63;;;10.97;;
63699;SDS011;49845;47.130;142.766;2023-07-29T11:35:57;24.33;;;10.47;;
63699;SDS011;49845;47.130;142.766;2023-07-29T11:38:32;22.80;;;10.67;;
63699;SDS011;49845;47.130;142.766;2023-07-29T11:41:06;21.23;;;10.63;;
63699;SDS011;49845;47.130;142.766;2023-07-29T11:43:37;18.90;;;10.67;;
63699;SDS011;49845;47.130;142.766;2023-07-29T11:46:10;19.63;;;11.37;;
63699;SDS011;49845;47.130;142.766;2023-07-29T11:48:41;19.00;;;11.30;;
63699;SDS011;49845;47.130;142.766;2023-07-29T11:51:14;23.07;;;10.90;;
63699;SDS011;49845;47.130;142.766;2023-07-29T11:54:03;23.43;;;12.13;;
63699;SDS011;49845;47.130;142.766;2023-07-29T11:56:36;22.57;;;10.90;;
63699;SDS011;49845;47.130;142.766;2023-07-29T11:59:24;21.23;;;11.30;;
63699;SDS011;49845;47.130;142.766;2023-07-29T12:01:54;21.43;;;11.30;;
63699;SDS011;49845;47.130;142.766;2023-07-29T12:04:32;24.23;;;12.07;;
63699;SDS011;49845;47.130;142.766;2023-07-29T12:07:04;30.27;;;12.73;;
63699;SDS011;49845;47.130;142.766;2023-07-29T12:09:45;23.77;;;12.40;;
63699;SDS011;49845;47.130;142.766;2023-07-29T12:26:27;25.67;;;12.10;;
63699;SDS011;49845;47.130;142.766;2023-07-29T12:29:58;26.40;;;12.20;;
63699;SDS011;49845;47.130;142.766;2023-07-29T12:33:28;26.27;;;11.97;;
63699;SDS011;49845;47.130;142.766;2023-07-29T12:36:27;21.97;;;12.23;;
63699;SDS011;49845;47.130;142.766;2023-07-29T12:39:18;21.40;;;11.13;;
63699;SDS011;49845;47.130;142.766;2023-07-29T12:42:08;27.60;;;12.03;;
63699;SDS011;49845;47.130;142.766;2023-07-29T12:45:06;24.00;;;11.63;;
63699;SDS011;49845;47.130;142.766;2023-07-29T12:47:42;20.57;;;11.57;;
63699;SDS011;49845;47.130;142.766;2023-07-29T12:50:15;21.67;;;11.07;;
63699;SDS011;49845;47.130;142.766;2023-07-29T12:52:56;23.37;;;11.13;;
63699;SDS011;49845;47.130;142.766;2023-07-29T12:55:41;25.07;;;10.83;;
63699;SDS011;49845;47.130;142.766;2023-07-29T12:58:16;21.50;;;11.87;;
63699;SDS011;49845;47.130;142.766;2023-07-29T13:00:50;22.67;;;11.13;;
63699;SDS011;49845;47.130;142.766;2023-07-29T13:03:25;22.83;;;10.83;;
63699;SDS011;49845;47.130;142.766;2023-07-29T13:09:05;23.13;;;11.07;;
63699;SDS011;49845;47.130;142.766;2023-07-29T13:11:38;25.33;;;11.63;;
63699;SDS011;49845;47.130;142.766;2023-07-29T13:14:27;27.93;;;11.23;;
63699;SDS011;49845;47.130;142.766;2023-07-29T13:17:09;21.80;;;10.80;;
63699;SDS011;49845;47.130;142.766;2023-07-29T13:19:40;24.23;;;10.87;;
63699;SDS011;49845;47.130;142.766;2023-07-29T13:22:21;24.23;;;10.93;;
63699;SDS011;49845;47.130;142.766;2023-07-29T13:25:18;22.10;;;11.20;;
63699;SDS011;49845;47.130;142.766;2023-07-29T13:27:56;19.87;;;10.97;;
63699;SDS011;49845;47.130;142.766;2023-07-29T13:30:36;24.47;;;11.37;;
63699;SDS011;49845;47.130;142.766;2023-07-29T13:33:09;21.20;;;11.23;;
63699;SDS011;49845;47.130;142.766;2023-07-29T13:35:44;22.67;;;11.33;;
63699;SDS011;49845;47.130;142.766;2023-07-29T13:38:15;22.90;;;10.90;;
63699;SDS011;49845;47.130;142.766;2023-07-29T13:40:54;23.10;;;11.07;;
63699;SDS011;49845;47.130;142.766;2023-07-29T13:43:47;22.53;;;11.13;;
63699;SDS011;49845;47.130;142.766;2023-07-29T13:46:29;24.07;;;11.40;;
63699;SDS011;49845;47.130;142.766;2023-07-29T13:49:02;23.70;;;10.50;;
63699;SDS011;49845;47.130;142.766;2023-07-29T13:51:45;21.10;;;10.53;;
63699;SDS011;49845;47.130;142.766;2023-07-29T13:54:17;23.43;;;11.67;;
63699;SDS011;49845;47.130;142.766;2023-07-29T13:57:12;21.23;;;11.00;;
63699;SDS011;49845;47.130;142.766;2023-07-29T14:00:04;21.50;;;11.77;;
63699;SDS011;49845;47.130;142.766;2023-07-29T14:02:46;22.77;;;11.27;;
63699;SDS011;49845;47.130;142.766;2023-07-29T14:05:24;30.77;;;12.17;;
63699;SDS011;49845;47.130;142.766;2023-07-29T14:07:59;17.87;;;10.53;;
63699;SDS011;49845;47.130;142.766;2023-07-29T14:10:44;21.10;;;10.43;;
63699;SDS011;49845;47.130;142.766;2023-07-29T14:13:44;26.30;;;10.80;;
63699;SDS011;49845;47.130;142.766;2023-07-29T14:16:19;23.70;;;12.03;;
63699;SDS011;49845;47.130;142.766;2023-07-29T14:19:10;21.30;;;11.47;;
63699;SDS011;49845;47.130;142.766;2023-07-29T14:21:50;20.23;;;10.80;;
63699;SDS011;49845;47.130;142.766;2023-07-29T14:27:00;19.77;;;10.90;;
63699;SDS011;49845;47.130;142.766;2023-07-29T14:30:11;22.03;;;11.47;;
63699;SDS011;49845;47.130;142.766;2023-07-29T14:33:04;24.90;;;11.53;;
63699;SDS011;49845;47.130;142.766;2023-07-29T14:39:12;40.73;;;12.33;;
63699;SDS011;49845;47.130;142.766;2023-07-29T14:42:11;26.70;;;11.90;;
63699;SDS011;49845;47.130;142.766;2023-07-29T14:44:42;30.90;;;11.90;;
63699;SDS011;49845;47.130;142.766;2023-07-29T14:47:13;37.80;;;13.77;;
63699;SDS011;49845;47.130;142.766;2023-07-29T14:49:53;36.70;;;13.93;;
63699;SDS011;49845;47.130;142.766;2023-07-29T14:52:35;50.33;;;16.03;;
63699;SDS011;49845;47.130;142.766;2023-07-29T14:55:58;57.10;;;15.00;;
63699;SDS011;49845;47.130;142.766;2023-07-29T14:58:30;44.67;;;14.63;;
63699;SDS011;49845;47.130;142.766;2023-07-29T15:01:00;46.53;;;15.30;;
63699;SDS011;49845;47.130;142.766;2023-07-29T15:03:31;57.87;;;18.40;;
63699;SDS011;49845;47.130;142.766;2023-07-29T15:06:12;67.75;;;19.30;;
63699;SDS011;49845;47.130;142.766;2023-07-29T15:08:47;65.53;;;19.77;;
63699;SDS011;49845;47.130;142.766;2023-07-29T15:11:20;87.90;;;22.47;;
63699;SDS011;49845;47.130;142.766;2023-07-29T15:13:53;76.50;;;21.23;;